KLM603 EHAM-KLAX
Flight info
| Callsign | KLM603 |
|---|---|
| Flight time | N/A |
| Altitude | 38000 |
| Route | EHAM BERG4E BERGI L602 NALAX L46 ESHIN N110 ERKIT DCT LEE TB7 QN9 DCT ADASI DCT BILLY DCT ELKOG DCT H6112 H6214 6315N DCT MIKLA Y194 KEZWO DCT SORIR DCT XRAY DCT SOSIT UT594 LODNO DCT KOGAG DCT ASVID Y47 BAMAM DCT GONEN DCT 6355N H6256 DCT MAXAR N968B LOPVI DCT IKBIB L634 ERDIK L669 TEXEX L713 UKSIL DCT 5280N DCT RABAV T702 AGLIN T331 MECNU DCT BYPOR T331 DLH J21 GEP J114 ONL V80 JIKNU V148 OGEZO DCT AYOLE Q114 BLD V283 DICSA T359 WOPMA V283 WHIGG V587 DAG V394 BASAL V12 HELDE DCT PMD DCT BOGET KIMMO3 KLAX |
| Aircraft | B78X/H-SDE1E2E3FGHIJ2J3J4J5M1RWXY/LB1D1 |
Departure
| Time | 2026-04-18 11:01 |
|---|---|
| Airport | Amsterdam Airport Schiphol (EHAM) |
Arrival
| Time | N/A |
|---|---|
| Airport | Los Angeles International Airport (KLAX) |
| Time | Latitude | Longitude | Altitude | Speed | Heading |
|---|---|---|---|---|---|
| 2026-04-18 10:32 | 52.31147 | 4.77132 | 3 ft | 0 kts | 4° |
| 2026-04-18 10:49 | 52.31145 | 4.77132 | 3 ft | 1 kts | 4° |
| 2026-04-18 10:50 | 52.31141 | 4.77132 | 3 ft | 1 kts | 4° |
| 2026-04-18 10:50 | 52.31135 | 4.77131 | 3 ft | 1 kts | 4° |
| 2026-04-18 10:50 | 52.31123 | 4.77130 | 3 ft | 2 kts | 4° |
| 2026-04-18 10:50 | 52.31097 | 4.77126 | 3 ft | 4 kts | 30° |
| 2026-04-18 10:51 | 52.31081 | 4.77093 | 5 ft | 4 kts | 92° |
| 2026-04-18 10:51 | 52.31081 | 4.77082 | 4 ft | 0 kts | 91° |
| 2026-04-18 10:56 | 52.31081 | 4.77087 | 3 ft | 3 kts | 91° |
| 2026-04-18 10:56 | 52.31079 | 4.77196 | 3 ft | 16 kts | 91° |
| 2026-04-18 10:56 | 52.31076 | 4.77369 | 3 ft | 4 kts | 91° |
| 2026-04-18 10:56 | 52.31075 | 4.77400 | 3 ft | 9 kts | 94° |
| 2026-04-18 10:57 | 52.31041 | 4.77516 | 3 ft | 16 kts | 123° |
| 2026-04-18 10:57 | 52.30929 | 4.77612 | 3 ft | 21 kts | 184° |
| 2026-04-18 10:57 | 52.30763 | 4.77593 | 3 ft | 26 kts | 183° |
| 2026-04-18 10:57 | 52.30629 | 4.77571 | 3 ft | 13 kts | 195° |
| 2026-04-18 10:58 | 52.30540 | 4.77570 | 4 ft | 13 kts | 157° |
| 2026-04-18 10:58 | 52.30520 | 4.77586 | 3 ft | 0 kts | 154° |
| 2026-04-18 10:59 | 52.30476 | 4.77620 | 4 ft | 11 kts | 154° |
| 2026-04-18 10:59 | 52.30420 | 4.77631 | 4 ft | 5 kts | 198° |
| 2026-04-18 10:59 | 52.30403 | 4.77605 | 3 ft | 4 kts | 228° |
| 2026-04-18 10:59 | 52.30391 | 4.77575 | 3 ft | 0 kts | 238° |
| 2026-04-18 11:00 | 52.30390 | 4.77572 | 3 ft | 2 kts | 238° |
| 2026-04-18 11:00 | 52.30313 | 4.77372 | 0 ft | 53 kts | 238° |
| 2026-04-18 11:00 | 52.29984 | 4.76514 | 2 ft | 123 kts | 238° |
| 2026-04-18 11:01 | 52.29428 | 4.75069 | 67 ft | 174 kts | 243° |
| 2026-04-18 11:01 | 52.28756 | 4.73329 | 725 ft | 187 kts | 240° |
| 2026-04-18 11:01 | 52.28079 | 4.71564 | 1791 ft | 183 kts | 239° |
| 2026-04-18 11:02 | 52.26337 | 4.68218 | 3275 ft | 205 kts | 226° |
| 2026-04-18 11:02 | 52.25283 | 4.66546 | 3955 ft | 218 kts | 227° |
| 2026-04-18 11:02 | 52.24319 | 4.64609 | 4704 ft | 223 kts | 243° |
| 2026-04-18 11:02 | 52.23768 | 4.62216 | 5512 ft | 228 kts | 250° |
| 2026-04-18 11:03 | 52.23277 | 4.59712 | 5951 ft | 233 kts | 256° |
| 2026-04-18 11:03 | 52.23275 | 4.56977 | 5970 ft | 252 kts | 279° |
| 2026-04-18 11:03 | 52.24000 | 4.54380 | 5981 ft | 260 kts | 303° |
| 2026-04-18 11:03 | 52.25377 | 4.52444 | 5987 ft | 266 kts | 323° |
| 2026-04-18 11:04 | 52.26962 | 4.50853 | 5981 ft | 266 kts | 324° |
| 2026-04-18 11:04 | 52.28558 | 4.49304 | 5986 ft | 267 kts | 324° |
| 2026-04-18 11:04 | 52.30148 | 4.47734 | 5984 ft | 267 kts | 323° |
| 2026-04-18 11:04 | 52.31730 | 4.46148 | 5986 ft | 266 kts | 323° |
| 2026-04-18 11:05 | 52.33316 | 4.44562 | 6032 ft | 268 kts | 323° |
| 2026-04-18 11:05 | 52.34907 | 4.42978 | 6441 ft | 269 kts | 325° |
| 2026-04-18 11:05 | 52.36696 | 4.41979 | 7356 ft | 279 kts | 348° |
| 2026-04-18 11:05 | 52.38648 | 4.41608 | 8358 ft | 285 kts | 349° |
| 2026-04-18 11:06 | 52.40650 | 4.41315 | 9347 ft | 292 kts | 351° |
| 2026-04-18 11:06 | 52.42695 | 4.41020 | 10310 ft | 298 kts | 350° |
| 2026-04-18 11:06 | 52.44777 | 4.40687 | 10982 ft | 312 kts | 349° |
| 2026-04-18 11:06 | 52.46994 | 4.40322 | 11571 ft | 329 kts | 350° |
| 2026-04-18 11:07 | 52.49339 | 4.39950 | 12149 ft | 346 kts | 350° |
| 2026-04-18 11:07 | 52.51799 | 4.39566 | 12695 ft | 362 kts | 350° |
| 2026-04-18 11:07 | 52.54342 | 4.39167 | 13440 ft | 371 kts | 351° |
| 2026-04-18 11:07 | 52.56938 | 4.38755 | 14241 ft | 378 kts | 351° |
| 2026-04-18 11:08 | 52.59577 | 4.38335 | 15011 ft | 383 kts | 350° |
| 2026-04-18 11:08 | 52.62252 | 4.37909 | 15810 ft | 388 kts | 350° |
| 2026-04-18 11:08 | 52.64963 | 4.37477 | 16587 ft | 393 kts | 350° |
| 2026-04-18 11:08 | 52.67698 | 4.37040 | 17358 ft | 397 kts | 350° |
| 2026-04-18 11:09 | 52.70423 | 4.36517 | 18102 ft | 398 kts | 343° |
| 2026-04-18 11:09 | 52.73021 | 4.35017 | 18790 ft | 394 kts | 328° |
| 2026-04-18 11:09 | 52.75277 | 4.32533 | 19421 ft | 390 kts | 313° |
| 2026-04-18 11:09 | 52.77075 | 4.29227 | 20055 ft | 385 kts | 299° |
| 2026-04-18 11:10 | 52.78429 | 4.25440 | 20686 ft | 385 kts | 295° |
| 2026-04-18 11:10 | 52.79757 | 4.21559 | 21311 ft | 389 kts | 294° |
| 2026-04-18 11:10 | 52.81079 | 4.17632 | 21920 ft | 392 kts | 294° |
| 2026-04-18 11:10 | 52.82412 | 4.13670 | 22537 ft | 396 kts | 294° |
| 2026-04-18 11:11 | 52.83302 | 4.11037 | 22937 ft | 398 kts | 294° |
| 2026-04-18 11:11 | 52.84658 | 4.07027 | 23523 ft | 401 kts | 294° |
| 2026-04-18 11:11 | 52.86466 | 4.01654 | 24228 ft | 405 kts | 294° |
| 2026-04-18 11:11 | 52.87838 | 3.97566 | 24696 ft | 407 kts | 294° |
| 2026-04-18 11:12 | 52.88770 | 3.94785 | 25005 ft | 409 kts | 294° |
| 2026-04-18 11:12 | 52.90138 | 3.90704 | 25450 ft | 412 kts | 293° |
| 2026-04-18 11:12 | 52.91531 | 3.86540 | 25890 ft | 414 kts | 293° |
| 2026-04-18 11:12 | 52.92930 | 3.82348 | 26339 ft | 417 kts | 293° |
| 2026-04-18 11:13 | 52.93505 | 3.80622 | 26518 ft | 418 kts | 293° |
| 2026-04-18 11:13 | 52.94202 | 3.78532 | 26737 ft | 419 kts | 293° |
| 2026-04-18 11:13 | 52.95617 | 3.74278 | 27199 ft | 422 kts | 293° |
| 2026-04-18 11:13 | 52.97039 | 3.69996 | 27623 ft | 425 kts | 293° |
| 2026-04-18 11:14 | 52.98472 | 3.65674 | 28033 ft | 428 kts | 293° |
| 2026-04-18 11:14 | 52.99912 | 3.61325 | 28433 ft | 431 kts | 293° |
| 2026-04-18 11:14 | 53.01359 | 3.56944 | 28849 ft | 434 kts | 293° |
| 2026-04-18 11:14 | 53.02814 | 3.52531 | 29303 ft | 436 kts | 293° |
| 2026-04-18 11:15 | 53.04274 | 3.48095 | 29712 ft | 439 kts | 293° |
| 2026-04-18 11:15 | 53.05742 | 3.43628 | 30120 ft | 441 kts | 293° |
| 2026-04-18 11:15 | 53.08661 | 3.34726 | 30175 ft | 438 kts | 292° |
| 2026-04-18 11:16 | 53.09904 | 3.30126 | 30408 ft | 434 kts | 284° |
| 2026-04-18 11:16 | 53.10754 | 3.25311 | 30738 ft | 432 kts | 277° |
| 2026-04-18 11:16 | 53.11408 | 3.20416 | 31048 ft | 435 kts | 278° |
| 2026-04-18 11:16 | 53.12070 | 3.15487 | 31372 ft | 438 kts | 278° |
| 2026-04-18 11:17 | 53.12729 | 3.10513 | 31687 ft | 441 kts | 278° |
| 2026-04-18 11:17 | 53.13384 | 3.05514 | 32035 ft | 444 kts | 278° |
| 2026-04-18 11:17 | 53.14047 | 3.00468 | 32185 ft | 449 kts | 278° |
| 2026-04-18 11:17 | 53.14714 | 2.95407 | 32177 ft | 443 kts | 278° |
| 2026-04-18 11:18 | 53.16026 | 2.85327 | 32178 ft | 445 kts | 277° |
| 2026-04-18 11:18 | 53.17322 | 2.75312 | 32179 ft | 445 kts | 277° |
| 2026-04-18 11:19 | 53.18617 | 2.65234 | 32178 ft | 444 kts | 277° |
| 2026-04-18 11:19 | 53.19903 | 2.55151 | 32210 ft | 444 kts | 277° |
| 2026-04-18 11:20 | 53.21180 | 2.45079 | 32189 ft | 443 kts | 277° |
| 2026-04-18 11:20 | 53.22449 | 2.35009 | 32188 ft | 443 kts | 277° |
| 2026-04-18 11:21 | 53.23710 | 2.24918 | 32195 ft | 446 kts | 277° |
| 2026-04-18 11:21 | 53.24960 | 2.14864 | 32195 ft | 444 kts | 277° |
| 2026-04-18 11:22 | 53.26207 | 2.04733 | 32214 ft | 445 kts | 277° |
| 2026-04-18 11:22 | 53.27442 | 1.94651 | 32200 ft | 442 kts | 277° |
| 2026-04-18 11:23 | 53.28665 | 1.84559 | 32200 ft | 442 kts | 277° |
| 2026-04-18 11:23 | 53.29882 | 1.74467 | 32199 ft | 443 kts | 277° |
| 2026-04-18 11:24 | 53.31081 | 1.64435 | 32206 ft | 443 kts | 277° |
| 2026-04-18 11:24 | 53.32282 | 1.54318 | 32199 ft | 443 kts | 277° |
| 2026-04-18 11:25 | 53.33671 | 1.44287 | 32189 ft | 442 kts | 279° |
| 2026-04-18 11:25 | 53.35114 | 1.34262 | 32186 ft | 442 kts | 279° |
| 2026-04-18 11:26 | 53.36566 | 1.24252 | 32186 ft | 442 kts | 279° |
| 2026-04-18 11:26 | 53.37992 | 1.14290 | 32187 ft | 442 kts | 279° |
| 2026-04-18 11:27 | 53.39421 | 1.04268 | 32185 ft | 442 kts | 279° |
| 2026-04-18 11:27 | 53.40839 | 0.94253 | 32188 ft | 441 kts | 279° |